»·PEaware :: DAL2189 KSLC-KPDX

DAL2189 :: KSLC-KPDX

FLIGHT INFORMATION

Flight Status: Arrived
Operator:
Delta Air Lines
More flights by this operator :: More flights under this callsign
Pilot: Joe P. (13940)
Aircraft: MCDONNELL-DOUGLAS MD-82
(MD82)
More flights by this aircraft type
Origin: KSLC Salt Lake City Intl
United States
Destination: KPDX Portland Intl
United States
More flights between these airports :: More routes between these airports
Route: +CGULL1 TWF J15 BOI J163 BKE JOTBA HHOOD4
File this flight plan on PilotEdge
Remarks: KSEA -PBN / B3B4B5D3D4 DOF / 180724 REG / N904DL EET / KZSE0057
Altitude:
(Current/Filed)
340ft
Speed:
(Current/Filed)
449kts
Departed: 24-Jul-18 07:54 AM
Arrived: 24-Jul-18 09:04 AM
Distance/Time
Traveled:
546nm/1:10
Distance/Time
To Go:
Arrived

Flight Plot

Page will automatically refresh every two minutes.

Flight plan parsing failed; only flown route is shown


Map Options




Map Legend


Flown Route
Filed Route
Departure Airport
Arrival Airport
Navaid (VOR, NDB)
Fix

Horizontal Profiles

Position Reports

Time Latitude Longitude Heading Altitude Ground
Speed
24-Jul-18 07:54 42.367236 -114.305615 304 34259ft 420kts
24-Jul-18 07:55 42.442549 -114.426100 303 34259ft 419kts
24-Jul-18 07:56 42.518876 -114.546141 304 34258ft 419kts
24-Jul-18 07:57 42.595629 -114.664722 304 34257ft 418kts
24-Jul-18 07:58 42.672175 -114.783393 304 34256ft 417kts
24-Jul-18 07:59 42.748421 -114.902403 303 34261ft 416kts
24-Jul-18 08:00 42.824424 -115.021525 303 34261ft 416kts
24-Jul-18 08:01 42.900218 -115.140398 304 34252ft 416kts
24-Jul-18 08:02 42.976057 -115.259634 303 34238ft 414kts
24-Jul-18 08:03 43.051380 -115.378537 303 34217ft 415kts
24-Jul-18 08:04 43.126375 -115.498081 303 34200ft 413kts
24-Jul-18 08:05 43.201183 -115.617753 303 34193ft 412kts
24-Jul-18 08:06 43.275872 -115.737224 303 34192ft 412kts
24-Jul-18 08:08 43.424422 -115.975978 302 34185ft 409kts
24-Jul-18 08:09 43.498310 -116.096185 302 34175ft 411kts
24-Jul-18 08:10 43.574905 -116.213317 308 34169ft 416kts
24-Jul-18 08:11 43.661660 -116.319908 311 34180ft 419kts
24-Jul-18 08:12 43.749224 -116.426427 310 34178ft 418kts
24-Jul-18 08:13 43.836200 -116.533115 310 34179ft 418kts
24-Jul-18 08:14 43.923184 -116.639994 310 34178ft 419kts
24-Jul-18 08:15 44.010399 -116.748138 310 34177ft 420kts
24-Jul-18 08:16 44.096428 -116.855255 310 34174ft 415kts
24-Jul-18 08:17 44.182599 -116.963196 310 34175ft 416kts
24-Jul-18 08:18 44.268807 -117.071199 310 34184ft 416kts
24-Jul-18 08:19 44.354772 -117.179365 310 34199ft 417kts
24-Jul-18 08:20 44.440989 -117.288561 310 34220ft 417kts
24-Jul-18 08:21 44.526927 -117.397831 309 34237ft 418kts
24-Jul-18 08:22 44.613262 -117.507676 310 34248ft 418kts
24-Jul-18 08:23 44.699407 -117.617229 310 34255ft 418kts
24-Jul-18 08:24 44.785286 -117.727109 309 34258ft 417kts
24-Jul-18 08:25 44.847576 -117.856471 285 34261ft 395kts
24-Jul-18 08:26 44.873196 -118.004626 274 34258ft 387kts
24-Jul-18 08:27 44.890575 -118.155027 275 34257ft 389kts
24-Jul-18 08:28 44.910286 -118.305397 275 34258ft 390kts
24-Jul-18 08:29 44.929795 -118.455451 275 34253ft 389kts
24-Jul-18 08:30 44.948919 -118.605740 274 34255ft 390kts
24-Jul-18 08:31 44.967695 -118.756747 274 34254ft 389kts
24-Jul-18 08:32 44.983333 -118.882170 274 34253ft 389kts
24-Jul-18 08:33 45.002082 -119.033248 274 34212ft 389kts
24-Jul-18 08:34 45.020503 -119.184087 274 34206ft 390kts
24-Jul-18 08:35 45.041646 -119.360160 274 34208ft 390kts
24-Jul-18 08:36 45.059717 -119.511636 274 34201ft 390kts
24-Jul-18 08:37 45.077232 -119.662606 273 34195ft 389kts
24-Jul-18 08:38 45.094349 -119.813676 273 34190ft 389kts
24-Jul-18 08:39 45.108778 -119.940079 273 34187ft 389kts
24-Jul-18 08:40 45.126047 -120.091329 273 34183ft 391kts
24-Jul-18 08:41 45.141125 -120.242981 272 33797ft 386kts
24-Jul-18 08:42 45.157670 -120.394919 275 31581ft 396kts
24-Jul-18 08:43 45.180992 -120.549358 286 29097ft 407kts
24-Jul-18 08:44 45.234715 -120.687550 295 26638ft 392kts
24-Jul-18 08:45 45.285629 -120.819776 294 24316ft 374kts
24-Jul-18 08:46 45.334384 -120.946937 294 22067ft 359kts
24-Jul-18 08:47 45.381339 -121.069969 294 19841ft 347kts
24-Jul-18 08:48 45.426195 -121.189421 291 17693ft 351kts
24-Jul-18 08:49 45.455986 -121.317033 281 15470ft 325kts
24-Jul-18 08:50 45.478435 -121.435555 284 14681ft 314kts
24-Jul-18 08:51 45.501836 -121.554155 283 12754ft 308kts
24-Jul-18 08:52 45.524140 -121.669163 284 11271ft 283kts
24-Jul-18 08:53 45.538289 -121.778691 272 10447ft 273kts
24-Jul-18 08:54 45.540830 -121.885603 272 9023ft 268kts
24-Jul-18 08:55 45.544164 -121.990166 274 7648ft 245kts
24-Jul-18 08:56 45.534266 -122.079640 238 6491ft 231kts
24-Jul-18 08:57 45.497032 -122.154357 235 5988ft 230kts
24-Jul-18 08:58 45.465116 -122.233588 247 5048ft 228kts
24-Jul-18 08:59 45.479710 -122.303944 316 3998ft 183kts
24-Jul-18 09:00 45.504213 -122.358657 295 3294ft 159kts
24-Jul-18 09:01 45.523906 -122.414446 299 2450ft 155kts
24-Jul-18 09:02 45.545008 -122.467978 299 1618ft 157kts
24-Jul-18 09:03 45.566110 -122.522022 300 794ft 154kts
24-Jul-18 09:04 45.586877 -122.575253 299 43ft 150kts
24-Jul-18 09:05 45.594198 -122.595616 231 27ft 10kts
24-Jul-18 09:06 45.594124 -122.595696 212 27ft 0kts
24-Jul-18 09:07 45.592632 -122.595947 119 27ft 15kts
24-Jul-18 09:08 45.591289 -122.594136 199 27ft 0kts
24-Jul-18 09:09 45.591300 -122.594131 199 27ft 0kts
24-Jul-18 09:10 45.591300 -122.594131 199 27ft 0kts
24-Jul-18 09:11 45.591300 -122.594131 199 27ft 0kts
24-Jul-18 09:12 45.591300 -122.594131 199 27ft 0kts
24-Jul-18 09:13 45.591300 -122.594131 199 27ft 0kts

Navigation Log

Ident Type
Flight plan parsing failed, navigation log unavailable